This is the latest recevied weather packets stored in our database for station/object DG3RAP-11. If no packets are shown the sender has not sent any weather packets the latest 10 day(s).
| Time | Temp. | Humidity | Pressure | Rain* | Wind** | Luminosity | Snow |
|---|---|---|---|---|---|---|---|
| 1777691343 | 8.33° C | 71% | 1023.4 hPa | 0 mm | - | - | - |
| 1777690803 | 8.89° C | 70% | 1023.5 hPa | 0 mm | - | - | - |
| 1777690443 | 8.89° C | 70% | 1023.5 hPa | 0 mm | - | - | - |
| 1777689903 | 8.89° C | 69% | 1023.5 hPa | 0 mm | - | - | - |
| 1777689363 | 8.33° C | 70% | 1023.6 hPa | 0 mm | - | - | - |
| 1777687743 | 8.89° C | 69% | 1023.8 hPa | 0 mm | - | - | - |
| 1777673883 | 12.78° C | 55% | 1024.7 hPa | 0 mm | - | - | - |
| 1777671363 | 12.22° C | 57% | 1024.6 hPa | 0 mm | - | - | - |
| 1777670823 | 11.67° C | 58% | 1024.4 hPa | 0 mm | - | - | - |
| 1777667763 | 16.11° C | 44% | 1024.5 hPa | 0 mm | - | - | - |
| 1777667223 | 15.56° C | 45% | 1024.7 hPa | 0 mm | - | - | - |
| 1777666683 | 15.56° C | 45% | 1024.8 hPa | 0 mm | - | - | - |
| 1777664163 | 16.67° C | 42% | 1024.6 hPa | 0 mm | - | - | - |
| 1777663624 | 17.22° C | 41% | 1024.7 hPa | 0 mm | - | - | - |
| 1777660563 | 16.11° C | 46% | 1024.4 hPa | 0 mm | - | - | - |
| 1777660023 | 16.67° C | 46% | 1024.5 hPa | 0 mm | - | - | - |
| 1777659483 | 17.22° C | 42% | 1024.4 hPa | 0 mm | - | - | - |
| 1777658943 | 17.78° C | 41% | 1024.3 hPa | 0 mm | - | - | - |
| 1777658043 | 18.89° C | 40% | 1024.1 hPa | 0 mm | - | - | - |
| 1777656963 | 19.44° C | 38% | 1024.1 hPa | 0 mm | - | - | - |
| 1777655343 | 19.44° C | 37% | 1024.1 hPa | 0 mm | - | - | - |
| 1777653363 | 20.56° C | 36% | 1024.6 hPa | 0 mm | - | - | - |
| 1777652823 | 20.56° C | 35% | 1024.5 hPa | 0 mm | - | - | - |
| 1777652283 | 20.56° C | 35% | 1024.5 hPa | 0 mm | - | - | - |
| 1777651743 | 21.67° C | 34% | 1024.6 hPa | 0 mm | - | - | - |
* Rain latest hour (hover to see other rain measurements)
** Current wind speed in m/s (hover to see current wind gust speed)